sensor_id;sensor_type;location;lat;lon;timestamp;P1;durP1;ratioP1;P2;durP2;ratioP2
62475;SDS011;50739;45.670;11.936;2023-12-29T00:02:28;65.00;;;40.53;;
62475;SDS011;50739;45.670;11.936;2023-12-29T00:07:31;67.10;;;39.30;;
62475;SDS011;50739;45.670;11.936;2023-12-29T00:12:35;68.10;;;39.70;;
62475;SDS011;50739;45.670;11.936;2023-12-29T00:17:37;64.85;;;39.42;;
62475;SDS011;50739;45.670;11.936;2023-12-29T00:22:41;68.20;;;38.17;;
62475;SDS011;50739;45.670;11.936;2023-12-29T00:27:44;61.65;;;37.42;;
62475;SDS011;50739;45.670;11.936;2023-12-29T00:32:47;61.33;;;37.45;;
62475;SDS011;50739;45.670;11.936;2023-12-29T00:37:49;60.80;;;35.93;;
62475;SDS011;50739;45.670;11.936;2023-12-29T00:42:54;62.95;;;36.95;;
62475;SDS011;50739;45.670;11.936;2023-12-29T00:47:56;58.13;;;35.28;;
62475;SDS011;50739;45.670;11.936;2023-12-29T00:52:59;61.87;;;35.13;;
62475;SDS011;50739;45.670;11.936;2023-12-29T00:58:03;59.03;;;35.43;;
62475;SDS011;50739;45.670;11.936;2023-12-29T01:03:05;56.40;;;34.42;;
62475;SDS011;50739;45.670;11.936;2023-12-29T01:08:08;57.65;;;34.33;;
62475;SDS011;50739;45.670;11.936;2023-12-29T01:13:12;54.20;;;33.35;;
62475;SDS011;50739;45.670;11.936;2023-12-29T01:18:14;52.20;;;32.33;;
62475;SDS011;50739;45.670;11.936;2023-12-29T01:23:17;50.30;;;31.70;;
62475;SDS011;50739;45.670;11.936;2023-12-29T01:28:20;52.35;;;31.38;;
62475;SDS011;50739;45.670;11.936;2023-12-29T01:33:23;49.97;;;29.65;;
62475;SDS011;50739;45.670;11.936;2023-12-29T01:38:25;48.10;;;29.08;;
62475;SDS011;50739;45.670;11.936;2023-12-29T01:43:29;44.35;;;27.45;;
62475;SDS011;50739;45.670;11.936;2023-12-29T01:48:31;47.50;;;27.05;;
62475;SDS011;50739;45.670;11.936;2023-12-29T01:53:34;44.55;;;27.30;;
62475;SDS011;50739;45.670;11.936;2023-12-29T01:58:37;43.37;;;27.20;;
62475;SDS011;50739;45.670;11.936;2023-12-29T02:03:40;46.15;;;26.77;;
62475;SDS011;50739;45.670;11.936;2023-12-29T02:08:43;44.83;;;27.73;;
62475;SDS011;50739;45.670;11.936;2023-12-29T02:13:48;43.85;;;26.95;;
62475;SDS011;50739;45.670;11.936;2023-12-29T02:18:50;46.90;;;27.48;;
62475;SDS011;50739;45.670;11.936;2023-12-29T02:23:53;44.80;;;26.87;;
62475;SDS011;50739;45.670;11.936;2023-12-29T02:28:58;41.38;;;25.55;;
62475;SDS011;50739;45.670;11.936;2023-12-29T02:34:04;42.35;;;24.98;;
62475;SDS011;50739;45.670;11.936;2023-12-29T02:39:08;39.97;;;25.67;;
62475;SDS011;50739;45.670;11.936;2023-12-29T02:44:13;44.37;;;24.70;;
62475;SDS011;50739;45.670;11.936;2023-12-29T02:49:15;40.40;;;24.35;;
62475;SDS011;50739;45.670;11.936;2023-12-29T02:54:17;38.40;;;23.50;;
62475;SDS011;50739;45.670;11.936;2023-12-29T03:42:22;27.13;;;16.02;;
62475;SDS011;50739;45.670;11.936;2023-12-29T03:47:24;25.70;;;16.08;;
62475;SDS011;50739;45.670;11.936;2023-12-29T03:52:26;25.65;;;16.35;;
62475;SDS011;50739;45.670;11.936;2023-12-29T03:57:30;27.45;;;15.77;;
62475;SDS011;50739;45.670;11.936;2023-12-29T04:02:32;24.70;;;15.15;;
62475;SDS011;50739;45.670;11.936;2023-12-29T04:07:35;26.48;;;14.98;;
62475;SDS011;50739;45.670;11.936;2023-12-29T04:12:39;25.20;;;15.30;;
62475;SDS011;50739;45.670;11.936;2023-12-29T04:17:41;24.75;;;15.50;;
62475;SDS011;50739;45.670;11.936;2023-12-29T04:22:43;24.83;;;14.60;;
62475;SDS011;50739;45.670;11.936;2023-12-29T04:27:47;22.40;;;14.18;;
62475;SDS011;50739;45.670;11.936;2023-12-29T04:32:50;24.38;;;14.15;;
62475;SDS011;50739;45.670;11.936;2023-12-29T04:37:52;21.80;;;13.27;;
62475;SDS011;50739;45.670;11.936;2023-12-29T04:42:56;22.40;;;13.47;;
62475;SDS011;50739;45.670;11.936;2023-12-29T04:47:58;22.67;;;12.77;;
62475;SDS011;50739;45.670;11.936;2023-12-29T04:53:01;20.40;;;12.70;;
62475;SDS011;50739;45.670;11.936;2023-12-29T04:58:05;20.37;;;12.97;;
62475;SDS011;50739;45.670;11.936;2023-12-29T05:03:07;22.97;;;14.07;;
62475;SDS011;50739;45.670;11.936;2023-12-29T05:08:09;25.50;;;13.13;;
62475;SDS011;50739;45.670;11.936;2023-12-29T05:13:13;21.55;;;12.55;;
62475;SDS011;50739;45.670;11.936;2023-12-29T05:18:16;22.77;;;13.32;;
62475;SDS011;50739;45.670;11.936;2023-12-29T05:23:18;20.42;;;12.07;;
62475;SDS011;50739;45.670;11.936;2023-12-29T05:28:22;20.75;;;12.52;;
62475;SDS011;50739;45.670;11.936;2023-12-29T05:33:24;19.58;;;11.85;;
62475;SDS011;50739;45.670;11.936;2023-12-29T05:38:26;22.65;;;12.40;;
62475;SDS011;50739;45.670;11.936;2023-12-29T05:43:30;20.50;;;11.43;;
62475;SDS011;50739;45.670;11.936;2023-12-29T05:48:34;21.88;;;12.15;;
62475;SDS011;50739;45.670;11.936;2023-12-29T05:53:36;24.33;;;12.45;;
62475;SDS011;50739;45.670;11.936;2023-12-29T05:58:42;21.15;;;12.35;;
62475;SDS011;50739;45.670;11.936;2023-12-29T06:03:45;20.15;;;11.95;;
62475;SDS011;50739;45.670;11.936;2023-12-29T06:08:47;19.13;;;12.47;;
62475;SDS011;50739;45.670;11.936;2023-12-29T06:13:51;22.65;;;12.20;;
62475;SDS011;50739;45.670;11.936;2023-12-29T06:18:53;20.85;;;12.32;;
62475;SDS011;50739;45.670;11.936;2023-12-29T06:23:55;21.03;;;11.67;;
62475;SDS011;50739;45.670;11.936;2023-12-29T06:28:59;20.98;;;11.90;;
62475;SDS011;50739;45.670;11.936;2023-12-29T06:34:01;18.55;;;11.75;;
62475;SDS011;50739;45.670;11.936;2023-12-29T06:39:04;19.63;;;11.10;;
62475;SDS011;50739;45.670;11.936;2023-12-29T06:44:08;22.07;;;13.10;;
62475;SDS011;50739;45.670;11.936;2023-12-29T06:49:11;18.60;;;11.10;;
62475;SDS011;50739;45.670;11.936;2023-12-29T06:54:13;20.33;;;11.13;;
62475;SDS011;50739;45.670;11.936;2023-12-29T06:59:17;20.40;;;11.70;;
62475;SDS011;50739;45.670;11.936;2023-12-29T07:04:20;19.35;;;11.73;;
62475;SDS011;50739;45.670;11.936;2023-12-29T07:09:22;19.33;;;11.87;;
62475;SDS011;50739;45.670;11.936;2023-12-29T07:14:26;21.75;;;12.52;;
62475;SDS011;50739;45.670;11.936;2023-12-29T07:19:29;34.27;;;13.87;;
62475;SDS011;50739;45.670;11.936;2023-12-29T07:24:37;34.10;;;13.87;;
62475;SDS011;50739;45.670;11.936;2023-12-29T07:29:42;26.48;;;13.00;;
62475;SDS011;50739;45.670;11.936;2023-12-29T07:34:45;30.23;;;13.85;;
62475;SDS011;50739;45.670;11.936;2023-12-29T07:39:47;25.60;;;13.20;;
62475;SDS011;50739;45.670;11.936;2023-12-29T07:44:51;37.78;;;14.52;;
62475;SDS011;50739;45.670;11.936;2023-12-29T07:49:55;27.13;;;13.65;;
62475;SDS011;50739;45.670;11.936;2023-12-29T07:54:58;26.02;;;12.32;;
62475;SDS011;50739;45.670;11.936;2023-12-29T08:00:02;26.27;;;12.90;;
62475;SDS011;50739;45.670;11.936;2023-12-29T08:05:07;25.52;;;12.40;;
62475;SDS011;50739;45.670;11.936;2023-12-29T08:10:10;25.40;;;12.98;;
62475;SDS011;50739;45.670;11.936;2023-12-29T08:15:14;35.05;;;18.67;;
62475;SDS011;50739;45.670;11.936;2023-12-29T08:20:16;42.13;;;19.92;;
62475;SDS011;50739;45.670;11.936;2023-12-29T08:25:19;34.80;;;15.13;;
62475;SDS011;50739;45.670;11.936;2023-12-29T08:30:22;25.63;;;14.50;;
62475;SDS011;50739;45.670;11.936;2023-12-29T08:35:25;26.67;;;15.07;;
62475;SDS011;50739;45.670;11.936;2023-12-29T08:40:27;27.33;;;14.52;;
62475;SDS011;50739;45.670;11.936;2023-12-29T08:45:31;40.45;;;18.92;;
62475;SDS011;50739;45.670;11.936;2023-12-29T08:50:33;23.13;;;13.60;;
62475;SDS011;50739;45.670;11.936;2023-12-29T08:55:36;29.88;;;15.73;;
62475;SDS011;50739;45.670;11.936;2023-12-29T09:00:40;28.77;;;14.87;;
62475;SDS011;50739;45.670;11.936;2023-12-29T09:05:42;26.35;;;15.73;;
62475;SDS011;50739;45.670;11.936;2023-12-29T09:10:44;28.67;;;16.40;;
62475;SDS011;50739;45.670;11.936;2023-12-29T09:15:48;27.97;;;15.67;;
62475;SDS011;50739;45.670;11.936;2023-12-29T09:20:51;28.88;;;16.50;;
62475;SDS011;50739;45.670;11.936;2023-12-29T09:25:53;28.75;;;17.90;;
62475;SDS011;50739;45.670;11.936;2023-12-29T09:30:57;30.87;;;17.60;;
62475;SDS011;50739;45.670;11.936;2023-12-29T09:36:01;33.37;;;17.93;;
62475;SDS011;50739;45.670;11.936;2023-12-29T09:41:04;33.20;;;17.38;;
62475;SDS011;50739;45.670;11.936;2023-12-29T09:46:10;31.13;;;17.10;;
62475;SDS011;50739;45.670;11.936;2023-12-29T09:51:18;29.13;;;16.57;;
62475;SDS011;50739;45.670;11.936;2023-12-29T09:56:23;26.77;;;16.83;;
62475;SDS011;50739;45.670;11.936;2023-12-29T10:01:28;27.55;;;16.02;;
62475;SDS011;50739;45.670;11.936;2023-12-29T10:06:32;27.35;;;17.35;;
62475;SDS011;50739;45.670;11.936;2023-12-29T10:11:38;26.38;;;16.02;;
62475;SDS011;50739;45.670;11.936;2023-12-29T10:16:45;26.42;;;16.17;;
62475;SDS011;50739;45.670;11.936;2023-12-29T10:21:56;49.83;;;27.50;;
62475;SDS011;50739;45.670;11.936;2023-12-29T10:27:04;31.87;;;18.60;;
62475;SDS011;50739;45.670;11.936;2023-12-29T10:32:08;33.30;;;19.35;;
62475;SDS011;50739;45.670;11.936;2023-12-29T10:37:11;32.50;;;18.85;;
62475;SDS011;50739;45.670;11.936;2023-12-29T10:42:19;29.85;;;16.58;;
62475;SDS011;50739;45.670;11.936;2023-12-29T10:47:23;27.10;;;16.45;;
62475;SDS011;50739;45.670;11.936;2023-12-29T10:52:26;26.90;;;16.90;;
62475;SDS011;50739;45.670;11.936;2023-12-29T10:57:28;29.43;;;17.63;;
62475;SDS011;50739;45.670;11.936;2023-12-29T11:02:32;26.20;;;15.87;;
62475;SDS011;50739;45.670;11.936;2023-12-29T11:07:35;26.60;;;16.23;;
62475;SDS011;50739;45.670;11.936;2023-12-29T11:12:40;25.87;;;14.90;;
62475;SDS011;50739;45.670;11.936;2023-12-29T11:17:44;24.10;;;14.93;;
62475;SDS011;50739;45.670;11.936;2023-12-29T11:22:50;24.70;;;13.75;;
62475;SDS011;50739;45.670;11.936;2023-12-29T11:27:52;22.65;;;14.00;;
62475;SDS011;50739;45.670;11.936;2023-12-29T11:32:58;23.77;;;14.67;;
62475;SDS011;50739;45.670;11.936;2023-12-29T11:38:22;25.40;;;15.13;;
62475;SDS011;50739;45.670;11.936;2023-12-29T11:43:31;23.00;;;14.23;;
62475;SDS011;50739;45.670;11.936;2023-12-29T11:48:56;25.70;;;13.88;;
62475;SDS011;50739;45.670;11.936;2023-12-29T11:54:00;21.23;;;13.77;;
62475;SDS011;50739;45.670;11.936;2023-12-29T11:59:16;23.88;;;15.40;;
62475;SDS011;50739;45.670;11.936;2023-12-29T12:09:56;49.33;;;25.10;;
62475;SDS011;50739;45.670;11.936;2023-12-29T12:15:33;23.80;;;13.50;;
62475;SDS011;50739;45.670;11.936;2023-12-29T12:20:38;26.60;;;15.15;;
62475;SDS011;50739;45.670;11.936;2023-12-29T12:25:40;26.63;;;14.18;;
62475;SDS011;50739;45.670;11.936;2023-12-29T12:30:44;23.63;;;15.07;;
62475;SDS011;50739;45.670;11.936;2023-12-29T12:35:47;23.75;;;14.88;;
62475;SDS011;50739;45.670;11.936;2023-12-29T12:41:09;24.97;;;14.90;;
62475;SDS011;50739;45.670;11.936;2023-12-29T12:46:12;26.63;;;15.00;;
62475;SDS011;50739;45.670;11.936;2023-12-29T12:51:17;23.25;;;14.15;;
62475;SDS011;50739;45.670;11.936;2023-12-29T12:56:21;23.88;;;14.55;;
62475;SDS011;50739;45.670;11.936;2023-12-29T13:01:28;25.02;;;15.30;;
62475;SDS011;50739;45.670;11.936;2023-12-29T13:06:33;31.45;;;16.17;;
62475;SDS011;50739;45.670;11.936;2023-12-29T13:11:36;34.13;;;19.85;;
62475;SDS011;50739;45.670;11.936;2023-12-29T13:16:39;27.97;;;17.57;;
62475;SDS011;50739;45.670;11.936;2023-12-29T13:21:43;28.60;;;18.47;;
62475;SDS011;50739;45.670;11.936;2023-12-29T13:26:50;31.63;;;18.52;;
62475;SDS011;50739;45.670;11.936;2023-12-29T13:31:58;47.37;;;28.77;;
62475;SDS011;50739;45.670;11.936;2023-12-29T13:37:04;37.75;;;21.75;;
62475;SDS011;50739;45.670;11.936;2023-12-29T13:42:12;40.97;;;24.33;;
62475;SDS011;50739;45.670;11.936;2023-12-29T13:47:18;32.30;;;19.15;;
62475;SDS011;50739;45.670;11.936;2023-12-29T13:52:23;33.90;;;18.67;;
62475;SDS011;50739;45.670;11.936;2023-12-29T13:57:29;32.40;;;19.25;;
62475;SDS011;50739;45.670;11.936;2023-12-29T14:02:34;41.85;;;23.92;;
62475;SDS011;50739;45.670;11.936;2023-12-29T14:07:44;36.63;;;21.45;;
62475;SDS011;50739;45.670;11.936;2023-12-29T14:12:49;38.92;;;21.80;;
62475;SDS011;50739;45.670;11.936;2023-12-29T14:17:51;40.78;;;22.50;;
62475;SDS011;50739;45.670;11.936;2023-12-29T14:23:04;33.07;;;18.63;;
62475;SDS011;50739;45.670;11.936;2023-12-29T14:28:13;33.78;;;19.33;;
62475;SDS011;50739;45.670;11.936;2023-12-29T14:33:16;35.90;;;19.30;;
62475;SDS011;50739;45.670;11.936;2023-12-29T14:38:20;34.05;;;19.75;;
62475;SDS011;50739;45.670;11.936;2023-12-29T14:43:25;31.65;;;18.52;;
62475;SDS011;50739;45.670;11.936;2023-12-29T14:48:27;58.60;;;29.30;;
62475;SDS011;50739;45.670;11.936;2023-12-29T14:53:31;54.78;;;27.00;;
62475;SDS011;50739;45.670;11.936;2023-12-29T14:58:35;78.25;;;34.80;;
62475;SDS011;50739;45.670;11.936;2023-12-29T15:03:38;28.60;;;17.97;;
62475;SDS011;50739;45.670;11.936;2023-12-29T15:08:42;57.73;;;26.97;;
62475;SDS011;50739;45.670;11.936;2023-12-29T15:13:44;43.92;;;23.27;;
62475;SDS011;50739;45.670;11.936;2023-12-29T15:18:46;38.50;;;20.70;;
62475;SDS011;50739;45.670;11.936;2023-12-29T15:23:50;32.80;;;18.30;;
62475;SDS011;50739;45.670;11.936;2023-12-29T15:28:52;162.97;;;64.33;;
62475;SDS011;50739;45.670;11.936;2023-12-29T15:33:56;72.47;;;34.25;;
62475;SDS011;50739;45.670;11.936;2023-12-29T15:38:59;122.37;;;51.10;;
62475;SDS011;50739;45.670;11.936;2023-12-29T15:44:02;131.35;;;55.08;;
62475;SDS011;50739;45.670;11.936;2023-12-29T15:49:07;59.27;;;29.87;;
62475;SDS011;50739;45.670;11.936;2023-12-29T15:54:10;41.53;;;23.47;;
62475;SDS011;50739;45.670;11.936;2023-12-29T15:59:13;45.67;;;25.15;;
62475;SDS011;50739;45.670;11.936;2023-12-29T16:04:15;47.08;;;25.50;;
62475;SDS011;50739;45.670;11.936;2023-12-29T16:09:19;40.57;;;22.07;;
62475;SDS011;50739;45.670;11.936;2023-12-29T16:14:22;37.72;;;22.83;;
62475;SDS011;50739;45.670;11.936;2023-12-29T16:19:24;36.67;;;22.05;;
62475;SDS011;50739;45.670;11.936;2023-12-29T16:24:28;47.45;;;25.70;;
62475;SDS011;50739;45.670;11.936;2023-12-29T16:29:30;40.58;;;24.08;;
62475;SDS011;50739;45.670;11.936;2023-12-29T16:34:33;65.70;;;36.90;;
62475;SDS011;50739;45.670;11.936;2023-12-29T16:39:37;42.55;;;24.08;;
62475;SDS011;50739;45.670;11.936;2023-12-29T16:44:42;49.13;;;27.90;;
62475;SDS011;50739;45.670;11.936;2023-12-29T16:49:44;51.38;;;29.85;;
62475;SDS011;50739;45.670;11.936;2023-12-29T16:54:48;56.88;;;32.88;;
62475;SDS011;50739;45.670;11.936;2023-12-29T16:59:50;50.67;;;30.27;;
62475;SDS011;50739;45.670;11.936;2023-12-29T17:04:55;47.58;;;28.15;;
62475;SDS011;50739;45.670;11.936;2023-12-29T17:09:59;35.83;;;21.35;;
62475;SDS011;50739;45.670;11.936;2023-12-29T17:15:01;38.23;;;22.23;;
62475;SDS011;50739;45.670;11.936;2023-12-29T17:20:05;40.88;;;23.92;;
62475;SDS011;50739;45.670;11.936;2023-12-29T17:25:09;38.50;;;22.27;;
62475;SDS011;50739;45.670;11.936;2023-12-29T17:30:12;34.87;;;22.00;;
62475;SDS011;50739;45.670;11.936;2023-12-29T17:35:16;38.72;;;22.55;;
62475;SDS011;50739;45.670;11.936;2023-12-29T17:40:25;44.45;;;27.88;;
62475;SDS011;50739;45.670;11.936;2023-12-29T17:45:27;43.30;;;25.63;;
62475;SDS011;50739;45.670;11.936;2023-12-29T17:50:30;45.58;;;26.90;;
62475;SDS011;50739;45.670;11.936;2023-12-29T17:55:34;42.27;;;26.50;;
62475;SDS011;50739;45.670;11.936;2023-12-29T18:00:36;41.60;;;25.58;;
62475;SDS011;50739;45.670;11.936;2023-12-29T18:05:39;49.57;;;28.03;;
62475;SDS011;50739;45.670;11.936;2023-12-29T18:10:44;50.10;;;29.95;;
62475;SDS011;50739;45.670;11.936;2023-12-29T18:15:48;58.03;;;31.37;;
62475;SDS011;50739;45.670;11.936;2023-12-29T18:20:51;53.55;;;30.30;;
62475;SDS011;50739;45.670;11.936;2023-12-29T18:25:55;46.30;;;27.98;;
62475;SDS011;50739;45.670;11.936;2023-12-29T18:30:57;46.83;;;27.17;;
62475;SDS011;50739;45.670;11.936;2023-12-29T18:36:04;168.77;;;72.35;;
62475;SDS011;50739;45.670;11.936;2023-12-29T18:41:08;57.85;;;31.58;;
62475;SDS011;50739;45.670;11.936;2023-12-29T18:46:12;55.22;;;31.55;;
62475;SDS011;50739;45.670;11.936;2023-12-29T18:51:16;56.33;;;32.93;;
62475;SDS011;50739;45.670;11.936;2023-12-29T18:56:20;59.22;;;34.38;;
62475;SDS011;50739;45.670;11.936;2023-12-29T19:01:22;63.08;;;34.17;;
62475;SDS011;50739;45.670;11.936;2023-12-29T19:06:24;62.75;;;35.00;;
62475;SDS011;50739;45.670;11.936;2023-12-29T19:11:28;66.78;;;36.63;;
62475;SDS011;50739;45.670;11.936;2023-12-29T19:16:31;95.82;;;48.55;;
62475;SDS011;50739;45.670;11.936;2023-12-29T19:21:33;71.82;;;40.35;;
62475;SDS011;50739;45.670;11.936;2023-12-29T19:26:41;66.45;;;37.97;;
62475;SDS011;50739;45.670;11.936;2023-12-29T19:31:43;68.90;;;40.65;;
62475;SDS011;50739;45.670;11.936;2023-12-29T19:36:46;77.13;;;44.92;;
62475;SDS011;50739;45.670;11.936;2023-12-29T19:41:50;72.43;;;41.08;;
62475;SDS011;50739;45.670;11.936;2023-12-29T19:46:52;66.10;;;38.55;;
62475;SDS011;50739;45.670;11.936;2023-12-29T19:51:54;67.35;;;40.00;;
62475;SDS011;50739;45.670;11.936;2023-12-29T19:57:00;64.15;;;37.53;;
62475;SDS011;50739;45.670;11.936;2023-12-29T20:02:02;63.42;;;36.95;;
62475;SDS011;50739;45.670;11.936;2023-12-29T20:07:05;65.50;;;37.10;;
62475;SDS011;50739;45.670;11.936;2023-12-29T20:12:09;68.18;;;39.42;;
62475;SDS011;50739;45.670;11.936;2023-12-29T20:17:11;70.68;;;41.78;;
62475;SDS011;50739;45.670;11.936;2023-12-29T20:22:13;75.97;;;42.60;;
62475;SDS011;50739;45.670;11.936;2023-12-29T20:27:17;72.80;;;42.33;;
62475;SDS011;50739;45.670;11.936;2023-12-29T20:32:19;77.40;;;44.20;;
62475;SDS011;50739;45.670;11.936;2023-12-29T20:37:22;72.40;;;42.83;;
62475;SDS011;50739;45.670;11.936;2023-12-29T20:42:25;74.82;;;43.50;;
62475;SDS011;50739;45.670;11.936;2023-12-29T20:47:28;72.53;;;43.40;;
62475;SDS011;50739;45.670;11.936;2023-12-29T20:52:30;77.50;;;42.90;;
62475;SDS011;50739;45.670;11.936;2023-12-29T20:57:34;74.03;;;42.33;;
62475;SDS011;50739;45.670;11.936;2023-12-29T21:02:37;77.25;;;42.47;;
62475;SDS011;50739;45.670;11.936;2023-12-29T21:07:40;73.72;;;41.05;;
62475;SDS011;50739;45.670;11.936;2023-12-29T21:12:46;69.90;;;40.65;;
62475;SDS011;50739;45.670;11.936;2023-12-29T21:18:00;64.82;;;37.50;;
62475;SDS011;50739;45.670;11.936;2023-12-29T21:23:08;61.35;;;36.83;;
62475;SDS011;50739;45.670;11.936;2023-12-29T21:28:12;63.35;;;36.15;;
62475;SDS011;50739;45.670;11.936;2023-12-29T21:33:14;66.70;;;37.42;;
62475;SDS011;50739;45.670;11.936;2023-12-29T21:38:16;62.42;;;36.38;;
62475;SDS011;50739;45.670;11.936;2023-12-29T21:43:20;65.32;;;37.95;;
62475;SDS011;50739;45.670;11.936;2023-12-29T21:48:22;68.15;;;38.05;;
62475;SDS011;50739;45.670;11.936;2023-12-29T21:53:25;80.43;;;45.50;;
62475;SDS011;50739;45.670;11.936;2023-12-29T21:58:29;70.80;;;42.30;;
62475;SDS011;50739;45.670;11.936;2023-12-29T22:03:32;68.35;;;40.63;;
62475;SDS011;50739;45.670;11.936;2023-12-29T22:08:36;66.80;;;39.88;;
62475;SDS011;50739;45.670;11.936;2023-12-29T22:13:42;68.03;;;40.00;;
62475;SDS011;50739;45.670;11.936;2023-12-29T22:18:45;72.88;;;43.67;;
62475;SDS011;50739;45.670;11.936;2023-12-29T22:23:47;65.57;;;39.25;;
62475;SDS011;50739;45.670;11.936;2023-12-29T22:28:51;67.90;;;40.03;;
62475;SDS011;50739;45.670;11.936;2023-12-29T22:33:54;66.22;;;40.95;;
62475;SDS011;50739;45.670;11.936;2023-12-29T22:38:56;67.25;;;40.95;;
62475;SDS011;50739;45.670;11.936;2023-12-29T22:44:00;80.82;;;47.25;;
62475;SDS011;50739;45.670;11.936;2023-12-29T22:49:02;110.07;;;52.97;;
62475;SDS011;50739;45.670;11.936;2023-12-29T22:54:05;81.65;;;46.03;;
62475;SDS011;50739;45.670;11.936;2023-12-29T22:59:09;76.97;;;42.77;;
62475;SDS011;50739;45.670;11.936;2023-12-29T23:04:11;70.20;;;40.55;;
62475;SDS011;50739;45.670;11.936;2023-12-29T23:09:14;65.18;;;40.67;;
62475;SDS011;50739;45.670;11.936;2023-12-29T23:14:18;67.88;;;39.65;;
62475;SDS011;50739;45.670;11.936;2023-12-29T23:19:20;68.80;;;40.38;;
62475;SDS011;50739;45.670;11.936;2023-12-29T23:24:22;66.50;;;39.80;;
62475;SDS011;50739;45.670;11.936;2023-12-29T23:29:26;68.80;;;39.65;;
62475;SDS011;50739;45.670;11.936;2023-12-29T23:34:28;65.70;;;38.57;;
62475;SDS011;50739;45.670;11.936;2023-12-29T23:39:31;70.55;;;42.80;;
62475;SDS011;50739;45.670;11.936;2023-12-29T23:44:35;72.53;;;42.40;;
62475;SDS011;50739;45.670;11.936;2023-12-29T23:49:40;78.75;;;44.55;;
62475;SDS011;50739;45.670;11.936;2023-12-29T23:54:43;78.60;;;46.55;;
62475;SDS011;50739;45.670;11.936;2023-12-29T23:59:47;80.53;;;48.13;;
